Taipei, Taiwan

1:20 AM CST on February 08, 2016 (GMT +0800)
ITAIPEIT2 | | Change Station
CLOSE
Current Station
Personal Weather Station
Location: Taipei Da'An, Taiwan
Elevation: 30 ft
Nearby Weather Stations

Elev 30 ft 25.03 °N, 121.53 °E | Updated 26 seconds ago

Clear
Clear
46.4 °F
Feels Like 46 °F
N
1.0
Wind Variable Wind from SE
Gusts 4.0 mph

Today
High -- | Low -- °F
--% Chance of Precip.
Yesterday
High -- | Low -- °F
Precip. -- in
Pressure 30.30 in
Visibility -9999.0 miles
Clouds
Windchill 46 °F
Dew Point 40 °F
Humidity 77%
Rainfall 0.00 in
Snow Depth Not available.
6:33 AM 5:42 PM
Waning Crescent, 1% visible
METAR RCSS 071700Z VRB02KT CAVOK 07/M00 Q1026 NOSIG RMK A3032
Pressure 30.30 in
Visibility -9999.0 miles
Clouds
Windchill 46 °F
Dew Point 40 °F
Humidity 77%
Rainfall 0.00 in
Snow Depth Not available.
6:33 AM 5:42 PM
Waning Crescent, 1% visible
METAR RCSS 071700Z VRB02KT CAVOK 07/M00 Q1026 NOSIG RMK A3032

10-Day Weather Forecast

No radar image for this location.
×

Almanac

Astronomy

Feb. 08, 2016 Rise Set
Actual Time
Civil Twilight
Nautical Twilight
Astronomical Twilight
Moon
Length of Visible Light
Length of Day
Tomorrow will be .
, % of the Moon is Illuminated

Today's Extremes

Country Highs Country Lows

Community

WunderPhotos

Upload Photos

1,891,236 photos uploaded!

WunderBlog® & News

Nearby

Air Quality

  Air Quality AQ Index Pollutant
Not available.

Snow Depth

Station Depth Elevation

Earthquake Activity

City Distance Mag. Time & Date
Minimum magnitude displayed is 2.5.

Coastal Water Temperatures

Place Temperature

Stations

Nearby Weather Stations

Station Location Temp. Windchill Dew Point Humidity Wind Precip. Elev Updated Type